Time;durP1;ratioP1;P1;durP2;ratioP2;P2;SDS_P1;SDS_P2;PMS_P1;PMS_P2;Temp;Humidity;BMP_temperature;BMP_pressure;BME280_temperature;BME280_humidity;BME280_pressure;Samples;Min_cycle;Max_cycle;Signal;HPM_P1;HPM_P2
2022/12/12 04:58:03;;;;;;;2.65;2.27;;;;;;;8.52;85.16;100148.16;1781692;80;21521;-60
2022/12/12 05:00:34;;;;;;;2.50;1.85;;;;;;;8.81;81.96;100171.69;1762369;80;22537;-60
2022/12/12 05:03:26;;;;;;;3.63;2.17;;;;;;;8.90;81.10;100176.66;1756674;80;21026;-60
2022/12/12 05:05:57;;;;;;;2.60;2.10;;;;;;;8.97;80.49;100178.20;1765896;80;21026;-59
2022/12/12 05:08:28;;;;;;;2.30;1.75;;;;;;;9.08;79.91;100180.54;1709123;83;21045;-60
2022/12/12 05:10:55;;;;;;;2.83;2.17;;;;;;;9.19;79.65;100192.34;1596612;86;21167;-60
2022/12/12 05:13:26;;;;;;;1.98;1.87;;;;;;;9.30;79.21;100190.34;1613432;86;21756;-60
2022/12/12 05:15:53;;;;;;;2.05;1.60;;;;;;;9.40;78.95;100187.92;1659732;85;21081;-60
2022/12/12 05:18:21;;;;;;;1.70;1.60;;;;;;;9.52;78.42;100186.30;1658684;86;21089;-60
2022/12/12 05:20:48;;;;;;;1.80;1.70;;;;;;;9.61;77.82;100185.20;1655552;85;21034;-59
2022/12/12 05:23:14;;;;;;;2.50;2.02;;;;;;;9.66;77.07;100184.21;1652752;86;21110;-60
2022/12/12 05:25:41;;;;;;;2.10;1.90;;;;;;;9.67;76.11;100197.59;1657200;86;21051;-60
2022/12/12 05:28:08;;;;;;;3.40;2.05;;;;;;;9.63;75.75;100197.27;1690674;84;21046;-60
2022/12/12 05:30:35;;;;;;;3.10;2.20;;;;;;;9.64;75.47;100210.64;1693729;83;21541;-60
2022/12/12 05:33:02;;;;;;;3.08;2.00;;;;;;;9.62;75.06;100211.13;1681083;83;21065;-59
2022/12/12 05:35:28;;;;;;;1.82;1.72;;;;;;;9.59;74.69;100204.73;1685134;83;21137;-59
2022/12/12 05:37:55;;;;;;;2.87;2.27;;;;;;;9.58;74.65;100205.61;1696179;83;21186;-59
2022/12/12 05:40:22;;;;;;;1.95;1.82;;;;;;;9.57;74.48;100216.91;1688172;83;21049;-60
2022/12/12 05:42:48;;;;;;;2.17;1.98;;;;;;;9.59;74.50;100224.22;1689442;83;21011;-60
2022/12/12 05:45:15;;;;;;;3.37;2.60;;;;;;;9.63;74.25;100223.24;1693181;83;21115;-60
2022/12/12 05:47:42;;;;;;;2.62;2.40;;;;;;;9.65;73.71;100233.58;1693974;83;21021;-60
2022/12/12 05:50:09;;;;;;;2.33;2.12;;;;;;;9.64;73.46;100230.13;1693269;83;21054;-60
2022/12/12 05:52:36;;;;;;;4.15;2.30;;;;;;;9.59;73.24;100235.05;1651208;84;21152;-59
2022/12/12 05:55:04;;;;;;;4.17;2.65;;;;;;;9.55;73.29;100235.58;1699322;84;21062;-60
2022/12/12 05:57:31;;;;;;;2.92;2.33;;;;;;;9.55;73.16;100239.47;1685578;84;21557;-60
2022/12/12 05:59:57;;;;;;;2.60;2.22;;;;;;;9.54;73.07;100239.05;1685288;83;21054;-60
2022/12/12 06:02:24;;;;;;;2.72;2.00;;;;;;;9.56;73.01;100251.55;1694393;83;21502;-60
2022/12/12 06:04:51;;;;;;;3.67;2.87;;;;;;;9.56;72.39;100247.66;1685871;84;21070;-60
2022/12/12 06:07:18;;;;;;;3.33;2.70;;;;;;;9.52;72.01;100243.44;1700371;82;21172;-60
2022/12/12 06:09:45;;;;;;;2.60;2.33;;;;;;;9.47;72.19;100244.45;1749844;81;21038;-60
2022/12/12 06:12:12;;;;;;;2.47;2.27;;;;;;;9.44;72.01;100250.56;1778651;80;21073;-60
2022/12/12 06:14:38;;;;;;;3.33;2.75;;;;;;;9.41;71.86;100254.56;1768139;80;21530;-59
2022/12/12 06:17:05;;;;;;;2.10;1.90;;;;;;;9.40;71.72;100263.66;1751740;81;21046;-60
2022/12/12 06:19:32;;;;;;;4.22;3.75;;;;;;;9.34;71.80;100267.27;1768388;80;21037;-61
2022/12/12 06:21:58;;;;;;;3.95;2.60;;;;;;;9.38;72.08;100274.09;1762952;80;21057;-60
2022/12/12 06:24:25;;;;;;;2.60;2.40;;;;;;;9.29;71.96;100283.42;1765553;80;21031;-60
2022/12/12 06:26:52;;;;;;;2.52;2.33;;;;;;;9.21;72.55;100290.98;1766384;80;21525;-60
2022/12/12 06:29:19;;;;;;;3.10;2.80;;;;;;;9.23;72.80;100295.69;1770896;80;21088;-60
2022/12/12 06:31:45;;;;;;;2.37;2.17;;;;;;;9.25;72.47;100301.27;1777200;80;21038;-59
2022/12/12 06:34:13;;;;;;;2.50;2.30;;;;;;;9.24;72.24;100307.33;1753135;80;21042;-59
2022/12/12 06:36:40;;;;;;;2.62;2.40;;;;;;;9.21;72.22;100309.98;1746259;80;21505;-60
2022/12/12 06:39:06;;;;;;;3.05;2.55;;;;;;;9.21;72.31;100313.88;1772806;80;21066;-59
2022/12/12 06:41:33;;;;;;;2.92;2.60;;;;;;;9.21;72.10;100320.36;1773362;80;21104;-60
2022/12/12 06:44:00;;;;;;;3.27;2.87;;;;;;;9.21;72.22;100330.74;1745968;80;21030;-59
2022/12/12 06:46:28;;;;;;;3.37;3.08;;;;;;;9.24;72.09;100345.41;1748026;80;21514;-60
2022/12/12 06:48:55;;;;;;;3.75;2.60;;;;;;;9.27;72.08;100354.00;1768236;80;21045;-61
2022/12/12 06:51:25;;;;;;;2.85;2.60;;;;;;;9.28;71.80;100360.88;1767311;80;21072;-59
2022/12/12 06:53:51;;;;;;;3.80;2.80;;;;;;;9.28;71.67;100366.08;1752288;81;21072;-59
2022/12/12 06:56:21;;;;;;;4.55;3.22;;;;;;;9.28;71.56;100373.86;1752816;80;22550;-59
2022/12/12 06:58:48;;;;;;;5.12;3.92;;;;;;;9.30;71.67;100379.87;1759877;80;21067;-59
2022/12/12 07:01:18;;;;;;;3.17;2.72;;;;;;;9.47;71.35;100372.56;1766672;80;21519;-59
2022/12/12 07:03:45;;;;;;;3.87;3.12;;;;;;;9.59;70.42;100381.36;1756079;80;21007;-60
2022/12/12 07:06:12;;;;;;;3.27;2.98;;;;;;;9.59;70.10;100386.56;1759447;80;21006;-59
2022/12/12 07:08:38;;;;;;;3.33;3.02;;;;;;;9.62;69.92;100389.54;1762381;80;21092;-59
2022/12/12 07:11:12;;;;;;;3.80;3.12;;;;;;;9.62;69.89;100392.97;1762799;80;21082;-60
2022/12/12 07:13:39;;;;;;;3.15;2.85;;;;;;;9.64;69.88;100392.48;1689536;83;21040;-59
2022/12/12 07:16:07;;;;;;;3.20;2.90;;;;;;;9.68;69.79;100396.75;1691877;83;21110;-59
2022/12/12 07:18:34;;;;;;;2.77;2.40;;;;;;;9.72;69.63;100399.68;1684450;83;21014;-60
2022/12/12 07:21:06;;;;;;;2.98;2.77;;;;;;;9.76;69.41;100396.12;1692911;83;21574;-59
2022/12/12 07:23:33;;;;;;;3.20;2.90;;;;;;;9.75;68.80;100404.78;1685952;83;21504;-59
2022/12/12 07:26:03;;;;;;;3.40;2.70;;;;;;;9.71;68.70;100409.65;1694016;83;21090;-59
2022/12/12 07:28:30;;;;;;;3.40;3.10;;;;;;;9.72;68.58;100410.07;1694061;83;21066;-59
2022/12/12 07:30:57;;;;;;;4.17;3.30;;;;;;;9.71;68.53;100414.84;1685958;84;21554;-60
2022/12/12 07:33:23;;;;;;;3.17;2.87;;;;;;;9.71;68.74;100412.25;1678441;83;21023;-60
2022/12/12 07:35:50;;;;;;;3.20;2.90;;;;;;;9.74;68.70;100429.08;1684186;84;21045;-59
2022/12/12 07:38:17;;;;;;;4.05;3.20;;;;;;;9.73;68.04;100418.27;1671069;84;21053;-59
2022/12/12 07:40:44;;;;;;;3.27;2.70;;;;;;;9.69;67.78;100421.82;1687723;83;21517;-59
2022/12/12 07:43:11;;;;;;;4.22;3.42;;;;;;;9.63;67.91;100425.86;1692045;83;21044;-59
2022/12/12 07:45:38;;;;;;;3.25;2.95;;;;;;;9.58;68.30;100427.70;1698189;83;21077;-59
2022/12/12 07:48:05;;;;;;;3.05;2.80;;;;;;;9.59;68.53;100433.75;1693244;83;21106;-59
2022/12/12 07:50:31;;;;;;;4.03;3.50;;;;;;;9.66;68.59;100446.59;1684259;84;21193;-59
2022/12/12 08:06:39;;;;;;;6.85;3.65;;;;;;;8.33;76.38;100474.34;1795532;79;27631;-58
2022/12/12 08:09:06;;;;;;;3.30;2.98;;;;;;;9.24;71.30;100481.27;1750633;80;21522;-58
2022/12/12 08:11:33;;;;;;;4.00;3.60;;;;;;;9.38;70.18;100472.73;1772726;80;21027;-58
2022/12/12 08:14:00;;;;;;;3.62;3.33;;;;;;;9.45;70.09;100491.64;1759496;80;21030;-58
2022/12/12 08:16:27;;;;;;;3.45;3.15;;;;;;;9.53;69.97;100491.90;1761525;80;21070;-58
2022/12/12 08:18:56;;;;;;;3.47;3.17;;;;;;;9.64;69.74;100504.66;1756677;80;21061;-58
2022/12/12 08:21:24;;;;;;;4.50;3.22;;;;;;;9.69;69.20;100503.66;1701016;83;21147;-58
2022/12/12 08:23:50;;;;;;;3.25;2.90;;;;;;;9.70;68.71;100496.29;1711539;82;21073;-59
2022/12/12 08:26:17;;;;;;;3.77;3.00;;;;;;;9.71;68.65;100494.09;1704579;83;21049;-58
2022/12/12 08:28:44;;;;;;;4.20;3.05;;;;;;;9.71;68.14;100497.13;1707003;83;21102;-58
2022/12/12 08:31:15;;;;;;;3.20;2.90;;;;;;;9.67;67.74;100495.05;1695321;83;21018;-58
2022/12/12 08:33:42;;;;;;;3.65;3.33;;;;;;;9.65;67.35;100500.72;1699414;83;21090;-58
2022/12/12 08:36:20;;;;;;;3.08;2.87;;;;;;;9.65;67.60;100497.26;1696843;83;21085;-58
2022/12/12 08:38:47;;;;;;;4.05;3.17;;;;;;;9.67;67.37;100496.78;1640159;86;21589;-58
2022/12/12 08:41:14;;;;;;;3.33;3.00;;;;;;;9.66;67.32;100498.55;1656614;86;21105;-58
2022/12/12 08:43:41;;;;;;;3.77;3.15;;;;;;;9.66;67.14;100493.35;1660230;86;21027;-58
2022/12/12 08:46:09;;;;;;;2.90;2.62;;;;;;;9.68;67.05;100498.06;1656605;85;21568;-58
2022/12/12 08:48:36;;;;;;;2.62;2.42;;;;;;;9.70;66.77;100500.19;1644988;85;21080;-58
2022/12/12 08:51:03;;;;;;;2.95;2.67;;;;;;;9.71;66.74;100500.58;1646125;85;21099;-58
2022/12/12 08:53:29;;;;;;;3.15;2.85;;;;;;;9.72;66.32;100503.61;1650842;85;21020;-58
2022/12/12 08:55:56;;;;;;;3.58;2.98;;;;;;;9.72;66.48;100504.91;1648501;85;21595;-58
2022/12/12 08:58:23;;;;;;;4.97;3.25;;;;;;;9.76;66.50;100514.34;1650293;86;21091;-58
2022/12/12 09:00:49;;;;;;;2.77;2.58;;;;;;;9.75;66.40;100508.72;1652970;85;21591;-58
2022/12/12 09:03:17;;;;;;;2.92;2.70;;;;;;;9.75;66.31;100518.25;1639826;85;21074;-59
2022/12/12 09:05:44;;;;;;;3.37;2.80;;;;;;;9.73;65.85;100518.73;1634753;85;21083;-58
2022/12/12 09:08:12;;;;;;;3.25;2.95;;;;;;;9.68;65.71;100527.95;1642955;85;21063;-58
2022/12/12 09:10:40;;;;;;;3.02;2.70;;;;;;;9.63;65.69;100534.97;1635764;86;21057;-58
2022/12/12 09:13:07;;;;;;;2.87;2.67;;;;;;;9.57;65.75;100539.00;1643923;86;21041;-59
2022/12/12 09:15:35;;;;;;;5.55;3.25;;;;;;;9.55;66.04;100543.80;1639264;85;21071;-59
2022/12/12 09:18:03;;;;;;;3.37;3.08;;;;;;;9.51;65.87;100553.41;1646811;86;21070;-58
2022/12/12 09:20:29;;;;;;;4.10;3.35;;;;;;;9.51;66.42;100556.01;1652315;86;21113;-58
2022/12/12 09:22:57;;;;;;;2.92;2.72;;;;;;;9.57;66.86;100555.87;1643538;85;21081;-59
2022/12/12 09:25:24;;;;;;;3.02;2.80;;;;;;;9.65;67.01;100556.58;1649069;85;21585;-59
2022/12/12 09:27:51;;;;;;;2.92;2.60;;;;;;;9.70;66.10;100555.19;1639003;86;21064;-58
2022/12/12 09:30:20;;;;;;;3.37;3.08;;;;;;;9.69;65.93;100558.22;1651234;85;21062;-58
2022/12/12 09:32:47;;;;;;;3.10;2.80;;;;;;;9.71;65.65;100549.08;1666919;85;21042;-58
2022/12/12 09:35:14;;;;;;;2.65;2.45;;;;;;;9.72;65.67;100546.48;1700216;80;21070;-58
2022/12/12 09:37:41;;;;;;;3.80;3.40;;;;;;;9.75;65.36;100546.39;1757458;80;21061;-58
2022/12/12 09:40:13;;;;;;;3.15;2.47;;;;;;;9.73;64.74;100552.06;1754655;81;21058;-58
2022/12/12 09:42:40;;;;;;;3.20;2.90;;;;;;;9.74;64.86;100555.09;1748012;81;21086;-58
2022/12/12 09:45:08;;;;;;;3.05;2.85;;;;;;;9.74;64.96;100552.49;1729469;81;21094;-59
2022/12/12 09:47:49;;;;;;;3.58;2.67;;;;;;;9.75;65.04;100549.42;1720918;81;21042;-58
2022/12/12 09:50:37;;;;;;;3.30;3.00;;;;;;;9.75;65.09;100552.89;1720514;81;21519;-58
2022/12/12 09:53:07;;;;;;;3.20;2.90;;;;;;;9.75;64.74;100555.48;1733832;80;21019;-59
2022/12/12 09:56:11;;;;;;;3.10;2.80;;;;;;;9.73;64.51;100557.27;1734775;81;21032;-58
2022/12/12 09:58:46;;;;;;;2.70;2.50;;;;;;;9.69;64.40;100558.22;1735178;80;21518;-59
2022/12/12 10:01:42;;;;;;;3.10;2.72;;;;;;;9.71;64.64;100562.94;1737426;81;21601;-58
2022/12/12 10:04:39;;;;;;;3.05;2.33;;;;;;;9.75;64.95;100555.48;1691056;83;21041;-59
2022/12/12 10:07:17;;;;;;;3.12;2.92;;;;;;;9.83;64.79;100556.17;1682461;83;22113;-58
2022/12/12 10:10:13;;;;;;;2.58;2.22;;;;;;;9.85;63.97;100558.30;1606645;88;21115;-58
2022/12/12 10:12:40;;;;;;;3.58;2.60;;;;;;;9.80;63.80;100558.86;1631157;86;21031;-58
2022/12/12 10:15:11;;;;;;;3.02;2.70;;;;;;;9.80;63.58;100564.05;1625951;86;21102;-58
2022/12/12 10:17:41;;;;;;;4.05;3.12;;;;;;;9.75;63.79;100565.87;1617473;86;21018;-58
2022/12/12 10:20:27;;;;;;;2.60;2.37;;;;;;;9.76;63.94;100567.61;1577093;88;21590;-58
2022/12/12 16:22:46;;;;;;;62.75;35.33;;;;;;;6.99;75.07;100791.85;1781551;80;21022;-58
2022/12/12 16:25:26;;;;;;;45.70;28.87;;;;;;;7.24;73.40;100797.28;1763052;80;21042;-58
2022/12/12 16:28:01;;;;;;;47.33;30.88;;;;;;;7.35;72.85;100801.95;1762795;80;21035;-58
2022/12/12 16:30:27;;;;;;;48.20;33.18;;;;;;;7.43;72.50;100803.18;1753526;80;20983;-57
2022/12/12 16:32:54;;;;;;;39.45;30.82;;;;;;;7.49;72.33;100798.81;1771618;80;21033;-58
2022/12/12 16:35:22;;;;;;;31.07;24.30;;;;;;;7.57;72.30;100798.31;1753989;80;21533;-58
2022/12/12 16:37:50;;;;;;;27.17;21.77;;;;;;;7.65;72.12;100799.09;1768694;80;21475;-57
2022/12/12 16:40:18;;;;;;;29.77;22.00;;;;;;;7.75;71.99;100808.49;1750619;81;21089;-58
2022/12/12 16:42:49;;;;;;;24.47;17.32;;;;;;;7.84;71.73;100811.01;1762523;80;21038;-58
2022/12/12 16:45:16;;;;;;;21.57;15.20;;;;;;;8.00;71.14;100812.56;1644881;86;21222;-58
2022/12/12 16:47:43;;;;;;;13.72;11.45;;;;;;;8.00;71.14;100812.56;1653667;86;21091;-58
2022/12/12 16:50:12;;;;;;;18.00;14.23;;;;;;;8.08;70.83;100802.97;1643886;86;21127;-57
2022/12/12 16:52:38;;;;;;;17.85;14.78;;;;;;;8.16;70.57;100801.62;1655641;85;21070;-58
2022/12/12 16:55:19;;;;;;;22.90;17.07;;;;;;;8.22;70.27;100804.97;1647215;86;21060;-58
2022/12/12 16:57:46;;;;;;;23.07;16.25;;;;;;;8.27;69.97;100800.20;1636203;86;21037;-58
2022/12/12 17:00:14;;;;;;;18.70;15.50;;;;;;;8.32;69.78;100806.20;1630661;86;21174;-58
2022/12/12 17:02:41;;;;;;;17.57;14.55;;;;;;;8.39;69.58;100815.64;1631937;86;21167;-59
2022/12/12 17:05:13;;;;;;;15.05;9.90;;;;;;;8.46;69.19;100819.86;1637091;86;21119;-58
2022/12/12 17:07:39;;;;;;;9.85;7.95;;;;;;;8.52;68.99;100822.38;1637202;86;21560;-57
2022/12/12 17:10:09;;;;;;;8.60;7.58;;;;;;;8.57;68.84;100821.90;1648428;86;21084;-58
2022/12/12 17:12:38;;;;;;;7.53;6.33;;;;;;;8.62;68.67;100821.38;1643397;86;21092;-58
2022/12/12 17:15:09;;;;;;;6.62;5.72;;;;;;;8.68;68.50;100818.70;1633799;86;21072;-57
2022/12/12 17:17:35;;;;;;;6.78;6.03;;;;;;;8.72;68.19;100821.68;1648290;86;21660;-58
2022/12/12 17:20:03;;;;;;;6.90;6.00;;;;;;;8.74;68.10;100825.11;1646948;86;21074;-57
2022/12/12 17:22:30;;;;;;;7.10;6.40;;;;;;;8.77;67.96;100826.38;1644718;86;21084;-58
2022/12/12 17:24:57;;;;;;;6.55;5.85;;;;;;;8.82;67.83;100827.20;1638257;86;21608;-58
2022/12/12 17:27:23;;;;;;;7.83;6.30;;;;;;;8.90;67.68;100843.52;1642052;86;21612;-58
2022/12/12 17:29:50;;;;;;;7.17;6.47;;;;;;;8.93;67.48;100851.24;1638105;86;21068;-57
2022/12/12 17:32:16;;;;;;;6.42;5.72;;;;;;;8.98;67.21;100855.94;1642526;86;21106;-57
2022/12/12 17:34:43;;;;;;;6.62;5.92;;;;;;;9.02;66.92;100855.02;1646462;86;21161;-57
2022/12/12 17:37:09;;;;;;;8.68;6.47;;;;;;;9.06;66.70;100857.13;1639909;86;21084;-58
2022/12/12 17:39:36;;;;;;;7.40;6.37;;;;;;;9.05;66.66;100858.86;1639296;87;21071;-57
2022/12/12 17:42:03;;;;;;;7.80;7.00;;;;;;;9.06;66.69;100856.69;1647134;84;21062;-58
2022/12/12 17:44:30;;;;;;;9.48;7.50;;;;;;;9.10;66.47;100860.09;1694801;84;21514;-58
2022/12/12 17:46:57;;;;;;;9.03;8.00;;;;;;;9.13;66.33;100850.98;1694251;84;21199;-57
2022/12/12 17:49:23;;;;;;;7.78;6.97;;;;;;;9.16;66.14;100855.68;1760845;80;21565;-58
2022/12/12 17:51:50;;;;;;;7.28;6.58;;;;;;;9.17;66.01;100857.37;1760512;80;21024;-57
2022/12/12 17:54:16;;;;;;;7.25;6.28;;;;;;;9.21;65.81;100854.33;1763081;80;21098;-57
2022/12/12 17:56:43;;;;;;;8.13;7.33;;;;;;;9.20;65.65;100852.16;1772552;80;21041;-57
2022/12/12 17:59:10;;;;;;;12.25;9.18;;;;;;;9.21;65.64;100846.53;1779163;80;21494;-58
2022/12/12 18:01:36;;;;;;;9.50;8.48;;;;;;;9.23;65.56;100850.83;1766263;80;21038;-57
2022/12/12 18:04:03;;;;;;;15.90;11.78;;;;;;;9.24;65.51;100849.94;1759008;80;21116;-57
2022/12/12 18:06:32;;;;;;;11.80;9.35;;;;;;;9.26;65.44;100849.47;1757763;80;21062;-57
2022/12/12 18:08:59;;;;;;;9.20;7.90;;;;;;;9.28;65.32;100843.81;1764955;80;21532;-57
2022/12/12 18:11:30;;;;;;;8.15;7.35;;;;;;;9.30;65.05;100842.05;1753285;80;21086;-57
2022/12/12 18:14:02;;;;;;;8.20;6.90;;;;;;;9.33;64.87;100838.13;1752234;80;21506;-57
2022/12/12 18:16:30;;;;;;;8.03;7.22;;;;;;;9.32;64.84;100838.13;1674987;83;21027;-57
2022/12/12 18:18:57;;;;;;;7.50;6.70;;;;;;;9.31;64.63;100844.22;1758340;80;21037;-57
2022/12/12 18:21:29;;;;;;;7.55;6.22;;;;;;;9.28;64.65;100839.05;1763609;80;21054;-57
2022/12/12 18:23:57;;;;;;;10.80;6.85;;;;;;;9.25;64.64;100840.41;1746765;80;21058;-57
2022/12/12 18:26:23;;;;;;;7.55;6.60;;;;;;;9.21;64.59;100835.69;1760721;80;21070;-57
2022/12/12 18:28:56;;;;;;;7.35;6.58;;;;;;;9.19;64.80;100833.55;1783270;80;21070;-57
2022/12/12 18:31:23;;;;;;;7.47;6.67;;;;;;;9.18;64.80;100833.16;1759356;80;21002;-57
2022/12/12 18:33:50;;;;;;;6.40;5.80;;;;;;;9.18;64.85;100834.88;1747705;80;21043;-57
2022/12/12 18:36:19;;;;;;;6.90;5.72;;;;;;;9.18;64.95;100836.18;1759524;80;21074;-57
2022/12/12 18:38:46;;;;;;;6.53;5.72;;;;;;;9.19;64.96;100830.95;1764809;80;21026;-57
2022/12/12 18:41:13;;;;;;;6.62;5.75;;;;;;;9.19;64.83;100824.47;1759950;80;21086;-57
2022/12/12 18:43:40;;;;;;;7.40;6.62;;;;;;;9.22;64.83;100817.95;1762371;80;21533;-57
2022/12/12 18:46:09;;;;;;;6.17;5.58;;;;;;;9.23;64.81;100806.70;1767374;80;21042;-57
2022/12/12 18:48:41;;;;;;;7.45;5.78;;;;;;;9.26;64.78;100813.13;1764059;80;20966;-57
2022/12/12 18:51:13;;;;;;;7.30;6.42;;;;;;;9.27;64.72;100822.64;1763857;80;20955;-57
2022/12/12 18:53:40;;;;;;;7.55;6.53;;;;;;;9.30;64.56;100821.28;1631892;86;21045;-57
2022/12/12 18:56:12;;;;;;;9.50;7.30;;;;;;;9.32;64.53;100827.30;1627522;86;21076;-57
2022/12/12 18:58:39;;;;;;;10.25;8.35;;;;;;;9.36;64.45;100825.51;1610940;87;21101;-57
2022/12/12 19:01:11;;;;;;;10.65;8.90;;;;;;;9.40;64.23;100830.64;1589428;89;21081;-57
2022/12/12 19:03:39;;;;;;;11.43;9.10;;;;;;;9.44;64.24;100831.44;1564173;90;21107;-57
2022/12/12 19:06:08;;;;;;;9.10;6.65;;;;;;;9.47;64.14;100830.97;1565609;90;21097;-57
2022/12/12 19:08:35;;;;;;;7.90;6.87;;;;;;;9.51;64.02;100831.34;1568212;90;21125;-58
2022/12/12 19:11:03;;;;;;;9.38;6.62;;;;;;;9.54;63.87;100833.87;1569870;90;21586;-58
2022/12/12 19:13:30;;;;;;;6.95;6.20;;;;;;;9.55;63.68;100838.20;1562375;90;21143;-57
2022/12/12 19:16:03;;;;;;;7.05;6.08;;;;;;;9.55;63.70;100843.39;1563581;90;21106;-57
2022/12/12 19:18:30;;;;;;;6.60;5.95;;;;;;;9.51;63.60;100844.33;1569170;91;21158;-57
2022/12/12 19:20:56;;;;;;;8.15;6.22;;;;;;;9.49;63.47;100849.98;1578359;90;21138;-57
2022/12/12 19:23:23;;;;;;;7.53;6.12;;;;;;;9.47;63.60;100849.59;1564984;90;21078;-57
2022/12/12 19:25:50;;;;;;;7.45;6.20;;;;;;;9.47;63.58;100842.66;1568275;90;21089;-57
2022/12/12 19:28:17;;;;;;;7.95;7.15;;;;;;;9.50;63.60;100847.79;1562999;90;21566;-57
